sensor_id;sensor_type;location;lat;lon;timestamp;P1;durP1;ratioP1;P2;durP2;ratioP2
20826;SDS011;10574;52.508;13.236;2024-03-02T00:00:40;5.40;;;3.63;;
20826;SDS011;10574;52.508;13.236;2024-03-02T00:03:07;7.27;;;3.90;;
20826;SDS011;10574;52.508;13.236;2024-03-02T00:05:35;7.37;;;4.27;;
20826;SDS011;10574;52.508;13.236;2024-03-02T00:08:05;9.43;;;3.70;;
20826;SDS011;10574;52.508;13.236;2024-03-02T00:10:37;11.13;;;5.63;;
20826;SDS011;10574;52.508;13.236;2024-03-02T00:13:07;10.30;;;6.20;;
20826;SDS011;10574;52.508;13.236;2024-03-02T00:18:13;4.07;;;3.57;;
20826;SDS011;10574;52.508;13.236;2024-03-02T00:20:43;5.00;;;3.57;;
20826;SDS011;10574;52.508;13.236;2024-03-02T00:23:13;9.03;;;5.27;;
20826;SDS011;10574;52.508;13.236;2024-03-02T00:25:42;7.87;;;3.77;;
20826;SDS011;10574;52.508;13.236;2024-03-02T00:28:16;16.00;;;4.73;;
20826;SDS011;10574;52.508;13.236;2024-03-02T00:33:32;9.60;;;4.80;;
20826;SDS011;10574;52.508;13.236;2024-03-02T00:36:04;6.27;;;4.47;;
20826;SDS011;10574;52.508;13.236;2024-03-02T00:38:33;7.53;;;5.70;;
20826;SDS011;10574;52.508;13.236;2024-03-02T00:41:05;7.97;;;5.00;;
20826;SDS011;10574;52.508;13.236;2024-03-02T00:43:43;13.77;;;6.23;;
20826;SDS011;10574;52.508;13.236;2024-03-02T00:46:12;9.50;;;4.37;;
20826;SDS011;10574;52.508;13.236;2024-03-02T00:48:45;8.50;;;4.67;;
20826;SDS011;10574;52.508;13.236;2024-03-02T00:51:15;7.77;;;5.03;;
20826;SDS011;10574;52.508;13.236;2024-03-02T00:53:43;7.07;;;5.13;;
20826;SDS011;10574;52.508;13.236;2024-03-02T00:56:11;9.40;;;5.43;;
20826;SDS011;10574;52.508;13.236;2024-03-02T00:58:39;8.53;;;4.07;;
20826;SDS011;10574;52.508;13.236;2024-03-02T01:01:07;17.27;;;5.43;;
20826;SDS011;10574;52.508;13.236;2024-03-02T01:03:35;10.37;;;5.50;;
20826;SDS011;10574;52.508;13.236;2024-03-02T01:06:03;10.97;;;5.00;;
20826;SDS011;10574;52.508;13.236;2024-03-02T01:08:33;12.90;;;5.47;;
20826;SDS011;10574;52.508;13.236;2024-03-02T01:11:02;7.97;;;4.17;;
20826;SDS011;10574;52.508;13.236;2024-03-02T01:13:30;9.37;;;4.83;;
20826;SDS011;10574;52.508;13.236;2024-03-02T01:15:58;8.90;;;5.27;;
20826;SDS011;10574;52.508;13.236;2024-03-02T01:18:28;11.93;;;5.47;;
20826;SDS011;10574;52.508;13.236;2024-03-02T01:20:56;26.27;;;4.53;;
20826;SDS011;10574;52.508;13.236;2024-03-02T01:23:24;4.60;;;3.83;;
20826;SDS011;10574;52.508;13.236;2024-03-02T01:28:39;10.33;;;5.10;;
20826;SDS011;10574;52.508;13.236;2024-03-02T01:31:07;12.97;;;4.60;;
20826;SDS011;10574;52.508;13.236;2024-03-02T01:33:35;12.27;;;3.77;;
20826;SDS011;10574;52.508;13.236;2024-03-02T01:36:02;17.53;;;4.23;;
20826;SDS011;10574;52.508;13.236;2024-03-02T01:38:31;13.63;;;3.90;;
20826;SDS011;10574;52.508;13.236;2024-03-02T01:40:59;12.20;;;5.07;;
20826;SDS011;10574;52.508;13.236;2024-03-02T01:43:28;21.87;;;5.83;;
20826;SDS011;10574;52.508;13.236;2024-03-02T01:45:55;12.37;;;4.33;;
20826;SDS011;10574;52.508;13.236;2024-03-02T01:48:23;15.53;;;6.93;;
20826;SDS011;10574;52.508;13.236;2024-03-02T01:50:51;18.67;;;6.60;;
20826;SDS011;10574;52.508;13.236;2024-03-02T01:53:19;16.90;;;5.57;;
20826;SDS011;10574;52.508;13.236;2024-03-02T01:55:46;16.03;;;6.60;;
20826;SDS011;10574;52.508;13.236;2024-03-02T01:58:14;19.77;;;6.97;;
20826;SDS011;10574;52.508;13.236;2024-03-02T02:00:42;11.17;;;5.03;;
20826;SDS011;10574;52.508;13.236;2024-03-02T02:03:10;9.13;;;4.37;;
20826;SDS011;10574;52.508;13.236;2024-03-02T02:05:38;5.03;;;3.70;;
20826;SDS011;10574;52.508;13.236;2024-03-02T02:08:07;13.63;;;4.30;;
20826;SDS011;10574;52.508;13.236;2024-03-02T02:10:36;20.03;;;4.40;;
20826;SDS011;10574;52.508;13.236;2024-03-02T02:13:03;7.60;;;3.90;;
20826;SDS011;10574;52.508;13.236;2024-03-02T02:15:31;8.53;;;5.23;;
20826;SDS011;10574;52.508;13.236;2024-03-02T02:18:00;9.80;;;4.63;;
20826;SDS011;10574;52.508;13.236;2024-03-02T02:20:29;12.70;;;4.97;;
20826;SDS011;10574;52.508;13.236;2024-03-02T02:25:28;15.13;;;5.80;;
20826;SDS011;10574;52.508;13.236;2024-03-02T02:27:56;8.30;;;4.30;;
20826;SDS011;10574;52.508;13.236;2024-03-02T02:30:25;32.17;;;6.63;;
20826;SDS011;10574;52.508;13.236;2024-03-02T02:32:54;4.80;;;3.13;;
20826;SDS011;10574;52.508;13.236;2024-03-02T02:35:22;10.87;;;5.50;;
20826;SDS011;10574;52.508;13.236;2024-03-02T02:37:50;12.53;;;5.40;;
20826;SDS011;10574;52.508;13.236;2024-03-02T02:40:20;14.53;;;4.50;;
20826;SDS011;10574;52.508;13.236;2024-03-02T02:42:48;17.37;;;5.53;;
20826;SDS011;10574;52.508;13.236;2024-03-02T02:45:17;15.67;;;5.87;;
20826;SDS011;10574;52.508;13.236;2024-03-02T02:47:45;12.70;;;5.13;;
20826;SDS011;10574;52.508;13.236;2024-03-02T02:50:13;7.43;;;4.77;;
20826;SDS011;10574;52.508;13.236;2024-03-02T02:52:41;12.37;;;4.57;;
20826;SDS011;10574;52.508;13.236;2024-03-02T02:55:09;10.47;;;5.73;;
20826;SDS011;10574;52.508;13.236;2024-03-02T02:57:41;13.17;;;5.57;;
20826;SDS011;10574;52.508;13.236;2024-03-02T03:00:10;8.47;;;4.90;;
20826;SDS011;10574;52.508;13.236;2024-03-02T03:02:44;23.20;;;6.33;;
20826;SDS011;10574;52.508;13.236;2024-03-02T03:05:14;6.83;;;4.90;;
20826;SDS011;10574;52.508;13.236;2024-03-02T03:07:42;11.93;;;6.43;;
20826;SDS011;10574;52.508;13.236;2024-03-02T03:10:14;11.60;;;7.03;;
20826;SDS011;10574;52.508;13.236;2024-03-02T03:12:43;23.20;;;7.33;;
20826;SDS011;10574;52.508;13.236;2024-03-02T03:15:10;13.00;;;6.80;;
20826;SDS011;10574;52.508;13.236;2024-03-02T03:17:38;14.07;;;7.73;;
20826;SDS011;10574;52.508;13.236;2024-03-02T03:20:07;16.50;;;7.90;;
20826;SDS011;10574;52.508;13.236;2024-03-02T03:22:38;13.73;;;7.23;;
20826;SDS011;10574;52.508;13.236;2024-03-02T03:25:07;22.40;;;5.53;;
20826;SDS011;10574;52.508;13.236;2024-03-02T03:27:35;12.07;;;8.20;;
20826;SDS011;10574;52.508;13.236;2024-03-02T03:30:03;21.07;;;8.43;;
20826;SDS011;10574;52.508;13.236;2024-03-02T03:32:31;7.27;;;5.33;;
20826;SDS011;10574;52.508;13.236;2024-03-02T03:34:59;11.43;;;6.03;;
20826;SDS011;10574;52.508;13.236;2024-03-02T03:37:27;9.53;;;6.87;;
20826;SDS011;10574;52.508;13.236;2024-03-02T03:39:56;10.83;;;6.50;;
20826;SDS011;10574;52.508;13.236;2024-03-02T03:42:24;17.40;;;5.47;;
20826;SDS011;10574;52.508;13.236;2024-03-02T03:44:52;10.73;;;6.77;;
20826;SDS011;10574;52.508;13.236;2024-03-02T03:47:20;17.57;;;6.83;;
20826;SDS011;10574;52.508;13.236;2024-03-02T03:49:48;14.57;;;6.93;;
20826;SDS011;10574;52.508;13.236;2024-03-02T03:52:15;16.17;;;8.37;;
20826;SDS011;10574;52.508;13.236;2024-03-02T03:54:43;13.67;;;8.20;;
20826;SDS011;10574;52.508;13.236;2024-03-02T03:57:11;14.33;;;6.17;;
20826;SDS011;10574;52.508;13.236;2024-03-02T03:59:38;25.53;;;8.30;;
20826;SDS011;10574;52.508;13.236;2024-03-02T04:02:06;12.90;;;7.87;;
20826;SDS011;10574;52.508;13.236;2024-03-02T04:04:35;18.17;;;7.63;;
20826;SDS011;10574;52.508;13.236;2024-03-02T04:07:02;19.40;;;7.70;;
20826;SDS011;10574;52.508;13.236;2024-03-02T04:09:30;20.37;;;6.87;;
20826;SDS011;10574;52.508;13.236;2024-03-02T04:11:58;23.87;;;9.30;;
20826;SDS011;10574;52.508;13.236;2024-03-02T04:14:28;16.93;;;7.87;;
20826;SDS011;10574;52.508;13.236;2024-03-02T04:16:55;14.33;;;8.00;;
20826;SDS011;10574;52.508;13.236;2024-03-02T04:19:23;13.00;;;5.77;;
20826;SDS011;10574;52.508;13.236;2024-03-02T04:21:51;11.57;;;6.83;;
20826;SDS011;10574;52.508;13.236;2024-03-02T04:24:18;12.47;;;7.43;;
20826;SDS011;10574;52.508;13.236;2024-03-02T04:26:46;11.70;;;6.57;;
20826;SDS011;10574;52.508;13.236;2024-03-02T04:29:14;14.40;;;7.97;;
20826;SDS011;10574;52.508;13.236;2024-03-02T04:31:43;11.00;;;6.20;;
20826;SDS011;10574;52.508;13.236;2024-03-02T04:34:11;10.47;;;6.30;;
20826;SDS011;10574;52.508;13.236;2024-03-02T04:36:39;12.30;;;5.73;;
20826;SDS011;10574;52.508;13.236;2024-03-02T04:39:06;9.10;;;5.90;;
20826;SDS011;10574;52.508;13.236;2024-03-02T04:41:35;7.53;;;6.00;;
20826;SDS011;10574;52.508;13.236;2024-03-02T04:44:03;20.23;;;7.10;;
20826;SDS011;10574;52.508;13.236;2024-03-02T04:46:32;17.93;;;8.73;;
20826;SDS011;10574;52.508;13.236;2024-03-02T04:49:00;14.20;;;5.57;;
20826;SDS011;10574;52.508;13.236;2024-03-02T04:51:28;17.10;;;6.67;;
20826;SDS011;10574;52.508;13.236;2024-03-02T04:53:55;13.27;;;5.80;;
20826;SDS011;10574;52.508;13.236;2024-03-02T04:56:23;20.73;;;7.47;;
20826;SDS011;10574;52.508;13.236;2024-03-02T04:58:59;9.47;;;6.17;;
20826;SDS011;10574;52.508;13.236;2024-03-02T05:01:26;9.43;;;5.17;;
20826;SDS011;10574;52.508;13.236;2024-03-02T05:03:54;33.60;;;5.77;;
20826;SDS011;10574;52.508;13.236;2024-03-02T05:06:22;29.70;;;8.63;;
20826;SDS011;10574;52.508;13.236;2024-03-02T05:08:50;11.53;;;4.80;;
20826;SDS011;10574;52.508;13.236;2024-03-02T05:11:17;16.50;;;7.27;;
20826;SDS011;10574;52.508;13.236;2024-03-02T05:13:52;10.97;;;6.30;;
20826;SDS011;10574;52.508;13.236;2024-03-02T05:16:20;18.20;;;8.30;;
20826;SDS011;10574;52.508;13.236;2024-03-02T05:18:48;5.33;;;4.23;;
20826;SDS011;10574;52.508;13.236;2024-03-02T05:21:15;10.93;;;6.07;;
20826;SDS011;10574;52.508;13.236;2024-03-02T05:23:46;13.40;;;6.60;;
20826;SDS011;10574;52.508;13.236;2024-03-02T05:26:14;6.97;;;4.87;;
20826;SDS011;10574;52.508;13.236;2024-03-02T05:28:42;20.17;;;7.00;;
20826;SDS011;10574;52.508;13.236;2024-03-02T05:31:10;21.20;;;8.73;;
20826;SDS011;10574;52.508;13.236;2024-03-02T05:33:38;12.43;;;5.57;;
20826;SDS011;10574;52.508;13.236;2024-03-02T05:36:06;14.70;;;9.50;;
20826;SDS011;10574;52.508;13.236;2024-03-02T05:38:37;8.57;;;6.23;;
20826;SDS011;10574;52.508;13.236;2024-03-02T05:41:04;10.93;;;6.13;;
20826;SDS011;10574;52.508;13.236;2024-03-02T05:43:32;8.93;;;5.37;;
20826;SDS011;10574;52.508;13.236;2024-03-02T05:46:00;14.80;;;7.00;;
20826;SDS011;10574;52.508;13.236;2024-03-02T05:48:28;15.30;;;6.43;;
20826;SDS011;10574;52.508;13.236;2024-03-02T05:50:55;16.13;;;7.07;;
20826;SDS011;10574;52.508;13.236;2024-03-02T05:53:23;11.47;;;5.57;;
20826;SDS011;10574;52.508;13.236;2024-03-02T05:55:51;9.57;;;5.57;;
20826;SDS011;10574;52.508;13.236;2024-03-02T05:58:20;16.60;;;7.10;;
20826;SDS011;10574;52.508;13.236;2024-03-02T06:00:50;17.00;;;9.07;;
20826;SDS011;10574;52.508;13.236;2024-03-02T06:03:18;28.83;;;9.80;;
20826;SDS011;10574;52.508;13.236;2024-03-02T06:05:45;26.80;;;10.00;;
20826;SDS011;10574;52.508;13.236;2024-03-02T06:08:16;27.73;;;6.53;;
20826;SDS011;10574;52.508;13.236;2024-03-02T06:10:44;20.20;;;7.17;;
20826;SDS011;10574;52.508;13.236;2024-03-02T06:13:12;17.33;;;8.27;;
20826;SDS011;10574;52.508;13.236;2024-03-02T06:15:39;13.93;;;6.80;;
20826;SDS011;10574;52.508;13.236;2024-03-02T06:18:07;12.50;;;5.80;;
20826;SDS011;10574;52.508;13.236;2024-03-02T06:20:35;16.20;;;7.23;;
20826;SDS011;10574;52.508;13.236;2024-03-02T06:23:03;13.87;;;7.73;;
20826;SDS011;10574;52.508;13.236;2024-03-02T06:25:31;26.83;;;7.33;;
20826;SDS011;10574;52.508;13.236;2024-03-02T06:27:59;14.40;;;5.90;;
20826;SDS011;10574;52.508;13.236;2024-03-02T06:30:27;13.37;;;6.70;;
20826;SDS011;10574;52.508;13.236;2024-03-02T06:32:55;14.00;;;7.47;;
20826;SDS011;10574;52.508;13.236;2024-03-02T06:35:23;8.67;;;5.60;;
20826;SDS011;10574;52.508;13.236;2024-03-02T06:37:51;12.67;;;6.17;;
20826;SDS011;10574;52.508;13.236;2024-03-02T06:40:19;25.17;;;7.63;;
20826;SDS011;10574;52.508;13.236;2024-03-02T06:42:50;14.60;;;6.70;;
20826;SDS011;10574;52.508;13.236;2024-03-02T06:45:18;12.37;;;7.10;;
20826;SDS011;10574;52.508;13.236;2024-03-02T06:47:46;17.17;;;7.57;;
20826;SDS011;10574;52.508;13.236;2024-03-02T06:50:13;10.23;;;6.77;;
20826;SDS011;10574;52.508;13.236;2024-03-02T06:52:41;12.43;;;6.97;;
20826;SDS011;10574;52.508;13.236;2024-03-02T06:55:09;13.30;;;6.13;;
20826;SDS011;10574;52.508;13.236;2024-03-02T06:57:37;9.20;;;6.27;;
20826;SDS011;10574;52.508;13.236;2024-03-02T07:00:05;8.13;;;5.07;;
20826;SDS011;10574;52.508;13.236;2024-03-02T07:02:35;13.77;;;7.57;;
20826;SDS011;10574;52.508;13.236;2024-03-02T07:05:03;17.93;;;7.17;;
20826;SDS011;10574;52.508;13.236;2024-03-02T07:07:32;21.00;;;7.77;;
20826;SDS011;10574;52.508;13.236;2024-03-02T07:10:01;12.97;;;6.20;;
20826;SDS011;10574;52.508;13.236;2024-03-02T07:12:29;16.13;;;7.30;;
20826;SDS011;10574;52.508;13.236;2024-03-02T07:14:57;17.80;;;5.57;;
20826;SDS011;10574;52.508;13.236;2024-03-02T07:17:32;18.17;;;7.13;;
20826;SDS011;10574;52.508;13.236;2024-03-02T07:20:01;13.50;;;6.20;;
20826;SDS011;10574;52.508;13.236;2024-03-02T07:22:29;14.03;;;5.40;;
20826;SDS011;10574;52.508;13.236;2024-03-02T07:24:57;11.23;;;6.80;;
20826;SDS011;10574;52.508;13.236;2024-03-02T07:27:25;11.90;;;6.47;;
20826;SDS011;10574;52.508;13.236;2024-03-02T07:29:53;20.70;;;6.33;;
20826;SDS011;10574;52.508;13.236;2024-03-02T07:32:21;15.80;;;6.00;;
20826;SDS011;10574;52.508;13.236;2024-03-02T07:34:49;14.87;;;7.17;;
20826;SDS011;10574;52.508;13.236;2024-03-02T07:37:16;11.73;;;5.37;;
20826;SDS011;10574;52.508;13.236;2024-03-02T07:39:44;18.57;;;7.53;;
20826;SDS011;10574;52.508;13.236;2024-03-02T07:42:12;12.80;;;6.77;;
20826;SDS011;10574;52.508;13.236;2024-03-02T07:44:40;24.47;;;6.77;;
20826;SDS011;10574;52.508;13.236;2024-03-02T07:47:08;11.80;;;7.30;;
20826;SDS011;10574;52.508;13.236;2024-03-02T07:49:35;18.70;;;7.80;;
20826;SDS011;10574;52.508;13.236;2024-03-02T07:52:03;16.43;;;8.60;;
20826;SDS011;10574;52.508;13.236;2024-03-02T07:54:31;17.60;;;5.60;;
20826;SDS011;10574;52.508;13.236;2024-03-02T07:56:59;10.93;;;6.23;;
20826;SDS011;10574;52.508;13.236;2024-03-02T07:59:27;18.00;;;5.47;;
20826;SDS011;10574;52.508;13.236;2024-03-02T08:01:55;19.17;;;6.83;;
20826;SDS011;10574;52.508;13.236;2024-03-02T08:04:22;13.23;;;6.80;;
20826;SDS011;10574;52.508;13.236;2024-03-02T08:06:50;21.80;;;7.53;;
20826;SDS011;10574;52.508;13.236;2024-03-02T08:09:18;18.97;;;6.57;;
20826;SDS011;10574;52.508;13.236;2024-03-02T08:11:46;24.20;;;8.23;;
20826;SDS011;10574;52.508;13.236;2024-03-02T08:14:15;17.73;;;7.37;;
20826;SDS011;10574;52.508;13.236;2024-03-02T08:16:42;18.83;;;6.47;;
20826;SDS011;10574;52.508;13.236;2024-03-02T08:19:10;24.03;;;6.57;;
20826;SDS011;10574;52.508;13.236;2024-03-02T08:21:38;21.13;;;8.77;;
20826;SDS011;10574;52.508;13.236;2024-03-02T08:24:06;23.67;;;5.93;;
20826;SDS011;10574;52.508;13.236;2024-03-02T08:26:34;11.33;;;6.33;;
20826;SDS011;10574;52.508;13.236;2024-03-02T08:29:02;14.13;;;7.27;;
20826;SDS011;10574;52.508;13.236;2024-03-02T08:31:30;14.07;;;7.83;;
20826;SDS011;10574;52.508;13.236;2024-03-02T08:33:57;14.20;;;8.13;;
20826;SDS011;10574;52.508;13.236;2024-03-02T08:36:26;10.23;;;5.63;;
20826;SDS011;10574;52.508;13.236;2024-03-02T08:38:54;23.30;;;9.23;;
20826;SDS011;10574;52.508;13.236;2024-03-02T08:41:22;11.63;;;6.20;;
20826;SDS011;10574;52.508;13.236;2024-03-02T08:43:50;29.53;;;8.73;;
20826;SDS011;10574;52.508;13.236;2024-03-02T08:46:17;24.40;;;9.07;;
20826;SDS011;10574;52.508;13.236;2024-03-02T08:48:45;32.10;;;6.07;;
20826;SDS011;10574;52.508;13.236;2024-03-02T08:51:13;16.50;;;6.20;;
20826;SDS011;10574;52.508;13.236;2024-03-02T08:53:40;8.77;;;5.63;;
20826;SDS011;10574;52.508;13.236;2024-03-02T08:56:09;10.60;;;5.17;;
20826;SDS011;10574;52.508;13.236;2024-03-02T08:58:38;12.13;;;7.60;;
20826;SDS011;10574;52.508;13.236;2024-03-02T09:01:06;26.30;;;8.43;;
20826;SDS011;10574;52.508;13.236;2024-03-02T09:03:34;12.43;;;7.67;;
20826;SDS011;10574;52.508;13.236;2024-03-02T09:06:03;9.73;;;4.87;;
20826;SDS011;10574;52.508;13.236;2024-03-02T09:08:31;14.70;;;6.60;;
20826;SDS011;10574;52.508;13.236;2024-03-02T09:10:59;10.90;;;5.37;;
20826;SDS011;10574;52.508;13.236;2024-03-02T09:13:26;10.87;;;7.00;;
20826;SDS011;10574;52.508;13.236;2024-03-02T09:15:54;11.17;;;6.03;;
20826;SDS011;10574;52.508;13.236;2024-03-02T09:18:22;15.97;;;5.77;;
20826;SDS011;10574;52.508;13.236;2024-03-02T09:20:50;20.70;;;7.83;;
20826;SDS011;10574;52.508;13.236;2024-03-02T09:23:18;11.07;;;6.47;;
20826;SDS011;10574;52.508;13.236;2024-03-02T09:25:46;30.27;;;9.33;;
20826;SDS011;10574;52.508;13.236;2024-03-02T09:28:17;9.93;;;6.07;;
20826;SDS011;10574;52.508;13.236;2024-03-02T09:30:45;11.40;;;5.50;;
20826;SDS011;10574;52.508;13.236;2024-03-02T09:33:13;4.77;;;3.73;;
20826;SDS011;10574;52.508;13.236;2024-03-02T09:35:43;16.20;;;6.23;;
20826;SDS011;10574;52.508;13.236;2024-03-02T09:38:11;19.23;;;7.20;;
20826;SDS011;10574;52.508;13.236;2024-03-02T09:40:40;25.93;;;6.80;;
20826;SDS011;10574;52.508;13.236;2024-03-02T09:43:09;8.70;;;4.80;;
20826;SDS011;10574;52.508;13.236;2024-03-02T09:45:37;13.63;;;6.07;;
20826;SDS011;10574;52.508;13.236;2024-03-02T09:48:05;7.83;;;5.07;;
20826;SDS011;10574;52.508;13.236;2024-03-02T09:50:33;14.57;;;6.17;;
20826;SDS011;10574;52.508;13.236;2024-03-02T09:53:01;10.47;;;4.87;;
20826;SDS011;10574;52.508;13.236;2024-03-02T09:55:29;14.20;;;6.70;;
20826;SDS011;10574;52.508;13.236;2024-03-02T09:57:57;11.23;;;5.50;;
20826;SDS011;10574;52.508;13.236;2024-03-02T10:00:25;17.40;;;8.50;;
20826;SDS011;10574;52.508;13.236;2024-03-02T10:02:52;5.60;;;4.77;;
20826;SDS011;10574;52.508;13.236;2024-03-02T10:05:24;13.30;;;5.93;;
20826;SDS011;10574;52.508;13.236;2024-03-02T10:08:02;21.50;;;6.60;;
20826;SDS011;10574;52.508;13.236;2024-03-02T10:10:36;15.63;;;6.23;;
20826;SDS011;10574;52.508;13.236;2024-03-02T10:13:10;8.73;;;5.10;;
20826;SDS011;10574;52.508;13.236;2024-03-02T10:15:39;8.20;;;5.53;;
20826;SDS011;10574;52.508;13.236;2024-03-02T10:18:11;9.83;;;5.00;;
20826;SDS011;10574;52.508;13.236;2024-03-02T10:20:40;13.30;;;5.27;;
20826;SDS011;10574;52.508;13.236;2024-03-02T10:23:12;19.30;;;6.50;;
20826;SDS011;10574;52.508;13.236;2024-03-02T10:25:46;13.27;;;5.57;;
20826;SDS011;10574;52.508;13.236;2024-03-02T10:28:18;11.20;;;5.17;;
20826;SDS011;10574;52.508;13.236;2024-03-02T10:30:47;11.60;;;4.90;;
20826;SDS011;10574;52.508;13.236;2024-03-02T10:33:17;11.40;;;4.93;;
20826;SDS011;10574;52.508;13.236;2024-03-02T10:35:45;8.70;;;5.03;;
20826;SDS011;10574;52.508;13.236;2024-03-02T10:38:14;10.37;;;4.93;;
20826;SDS011;10574;52.508;13.236;2024-03-02T10:40:46;16.17;;;4.73;;
20826;SDS011;10574;52.508;13.236;2024-03-02T10:43:14;8.67;;;4.07;;
20826;SDS011;10574;52.508;13.236;2024-03-02T10:45:44;8.27;;;4.33;;
20826;SDS011;10574;52.508;13.236;2024-03-02T10:48:14;15.30;;;5.07;;
20826;SDS011;10574;52.508;13.236;2024-03-02T10:50:42;10.13;;;3.93;;
20826;SDS011;10574;52.508;13.236;2024-03-02T10:53:11;12.80;;;4.53;;
20826;SDS011;10574;52.508;13.236;2024-03-02T10:55:39;12.87;;;4.47;;
20826;SDS011;10574;52.508;13.236;2024-03-02T10:58:07;5.00;;;2.83;;
20826;SDS011;10574;52.508;13.236;2024-03-02T11:00:38;6.93;;;4.23;;
20826;SDS011;10574;52.508;13.236;2024-03-02T11:03:06;8.53;;;5.50;;
20826;SDS011;10574;52.508;13.236;2024-03-02T11:05:39;10.33;;;3.47;;
20826;SDS011;10574;52.508;13.236;2024-03-02T11:08:13;12.13;;;4.97;;
20826;SDS011;10574;52.508;13.236;2024-03-02T11:10:48;8.33;;;4.20;;
20826;SDS011;10574;52.508;13.236;2024-03-02T11:13:22;10.70;;;3.63;;
20826;SDS011;10574;52.508;13.236;2024-03-02T11:15:53;4.90;;;3.07;;
20826;SDS011;10574;52.508;13.236;2024-03-02T11:18:22;11.30;;;4.37;;
20826;SDS011;10574;52.508;13.236;2024-03-02T11:20:50;5.13;;;3.87;;
20826;SDS011;10574;52.508;13.236;2024-03-02T11:23:20;5.03;;;4.27;;
20826;SDS011;10574;52.508;13.236;2024-03-02T11:25:51;8.90;;;3.27;;
20826;SDS011;10574;52.508;13.236;2024-03-02T11:28:19;7.07;;;4.23;;
20826;SDS011;10574;52.508;13.236;2024-03-02T11:30:49;8.43;;;4.57;;
20826;SDS011;10574;52.508;13.236;2024-03-02T11:33:22;4.87;;;3.53;;
20826;SDS011;10574;52.508;13.236;2024-03-02T11:35:48;5.03;;;2.83;;
20826;SDS011;10574;52.508;13.236;2024-03-02T11:38:17;11.80;;;2.63;;
20826;SDS011;10574;52.508;13.236;2024-03-02T11:40:45;6.43;;;3.63;;
20826;SDS011;10574;52.508;13.236;2024-03-02T11:43:14;12.80;;;4.40;;
20826;SDS011;10574;52.508;13.236;2024-03-02T11:45:42;6.80;;;2.70;;
20826;SDS011;10574;52.508;13.236;2024-03-02T11:48:12;7.07;;;3.67;;
20826;SDS011;10574;52.508;13.236;2024-03-02T11:50:46;4.03;;;2.30;;
20826;SDS011;10574;52.508;13.236;2024-03-02T11:53:16;15.67;;;3.70;;
20826;SDS011;10574;52.508;13.236;2024-03-02T11:55:45;7.40;;;3.27;;
20826;SDS011;10574;52.508;13.236;2024-03-02T11:58:18;5.00;;;2.70;;
20826;SDS011;10574;52.508;13.236;2024-03-02T12:00:50;9.23;;;3.70;;
20826;SDS011;10574;52.508;13.236;2024-03-02T12:03:17;12.97;;;3.63;;
20826;SDS011;10574;52.508;13.236;2024-03-02T12:05:57;5.97;;;3.33;;
20826;SDS011;10574;52.508;13.236;2024-03-02T12:08:21;4.13;;;3.07;;
20826;SDS011;10574;52.508;13.236;2024-03-02T12:10:56;5.73;;;2.10;;
20826;SDS011;10574;52.508;13.236;2024-03-02T12:13:27;10.43;;;3.83;;
20826;SDS011;10574;52.508;13.236;2024-03-02T12:15:55;6.77;;;2.93;;
20826;SDS011;10574;52.508;13.236;2024-03-02T12:18:23;9.53;;;3.73;;
20826;SDS011;10574;52.508;13.236;2024-03-02T12:20:52;5.17;;;3.13;;
20826;SDS011;10574;52.508;13.236;2024-03-02T12:23:24;6.27;;;2.77;;
20826;SDS011;10574;52.508;13.236;2024-03-02T12:25:52;5.97;;;2.50;;
20826;SDS011;10574;52.508;13.236;2024-03-02T12:28:20;4.90;;;2.97;;
20826;SDS011;10574;52.508;13.236;2024-03-02T12:30:48;4.60;;;2.77;;
20826;SDS011;10574;52.508;13.236;2024-03-02T12:33:17;3.30;;;2.60;;
20826;SDS011;10574;52.508;13.236;2024-03-02T12:35:46;11.20;;;4.03;;
20826;SDS011;10574;52.508;13.236;2024-03-02T12:38:15;5.10;;;2.97;;
20826;SDS011;10574;52.508;13.236;2024-03-02T12:40:43;2.30;;;1.97;;
20826;SDS011;10574;52.508;13.236;2024-03-02T12:43:10;3.03;;;2.63;;
20826;SDS011;10574;52.508;13.236;2024-03-02T12:45:40;4.47;;;3.93;;
20826;SDS011;10574;52.508;13.236;2024-03-02T12:48:08;7.13;;;2.60;;
20826;SDS011;10574;52.508;13.236;2024-03-02T12:50:38;6.40;;;3.33;;
20826;SDS011;10574;52.508;13.236;2024-03-02T12:53:06;18.13;;;3.30;;
20826;SDS011;10574;52.508;13.236;2024-03-02T12:55:39;3.30;;;2.87;;
20826;SDS011;10574;52.508;13.236;2024-03-02T12:58:21;4.73;;;2.43;;
20826;SDS011;10574;52.508;13.236;2024-03-02T13:00:49;5.30;;;3.70;;
20826;SDS011;10574;52.508;13.236;2024-03-02T13:03:19;3.63;;;2.40;;
20826;SDS011;10574;52.508;13.236;2024-03-02T13:05:49;3.80;;;2.60;;
20826;SDS011;10574;52.508;13.236;2024-03-02T13:08:19;3.17;;;2.47;;
20826;SDS011;10574;52.508;13.236;2024-03-02T13:10:46;8.47;;;2.83;;
20826;SDS011;10574;52.508;13.236;2024-03-02T13:13:14;7.80;;;3.23;;
20826;SDS011;10574;52.508;13.236;2024-03-02T13:15:43;4.27;;;2.57;;
20826;SDS011;10574;52.508;13.236;2024-03-02T13:18:13;13.20;;;3.13;;
20826;SDS011;10574;52.508;13.236;2024-03-02T13:20:41;4.30;;;2.80;;
20826;SDS011;10574;52.508;13.236;2024-03-02T13:23:08;7.87;;;2.93;;
20826;SDS011;10574;52.508;13.236;2024-03-02T13:25:36;13.70;;;3.57;;
20826;SDS011;10574;52.508;13.236;2024-03-02T13:28:04;4.97;;;2.67;;
20826;SDS011;10574;52.508;13.236;2024-03-02T13:30:33;11.70;;;3.50;;
20826;SDS011;10574;52.508;13.236;2024-03-02T13:33:01;14.07;;;3.30;;
20826;SDS011;10574;52.508;13.236;2024-03-02T13:35:28;2.30;;;2.07;;
20826;SDS011;10574;52.508;13.236;2024-03-02T13:37:57;2.40;;;2.17;;
20826;SDS011;10574;52.508;13.236;2024-03-02T13:40:25;1.63;;;1.50;;
20826;SDS011;10574;52.508;13.236;2024-03-02T13:42:53;5.57;;;3.80;;
20826;SDS011;10574;52.508;13.236;2024-03-02T13:45:23;5.57;;;1.87;;
20826;SDS011;10574;52.508;13.236;2024-03-02T13:47:50;5.10;;;2.73;;
20826;SDS011;10574;52.508;13.236;2024-03-02T13:50:19;3.63;;;1.67;;
20826;SDS011;10574;52.508;13.236;2024-03-02T13:52:47;11.73;;;2.40;;
20826;SDS011;10574;52.508;13.236;2024-03-02T13:55:14;4.30;;;2.67;;
20826;SDS011;10574;52.508;13.236;2024-03-02T13:57:43;3.83;;;2.07;;
20826;SDS011;10574;52.508;13.236;2024-03-02T14:00:11;5.70;;;2.57;;
20826;SDS011;10574;52.508;13.236;2024-03-02T14:02:39;3.60;;;1.73;;
20826;SDS011;10574;52.508;13.236;2024-03-02T14:05:07;2.47;;;1.97;;
20826;SDS011;10574;52.508;13.236;2024-03-02T14:07:42;5.90;;;1.50;;
20826;SDS011;10574;52.508;13.236;2024-03-02T14:10:06;2.97;;;1.63;;
20826;SDS011;10574;52.508;13.236;2024-03-02T14:12:34;5.07;;;2.57;;
20826;SDS011;10574;52.508;13.236;2024-03-02T14:15:02;3.13;;;2.37;;
20826;SDS011;10574;52.508;13.236;2024-03-02T14:17:30;5.23;;;2.37;;
20826;SDS011;10574;52.508;13.236;2024-03-02T14:19:58;6.13;;;2.00;;
20826;SDS011;10574;52.508;13.236;2024-03-02T14:22:26;3.10;;;1.57;;
20826;SDS011;10574;52.508;13.236;2024-03-02T14:24:54;8.10;;;1.70;;
20826;SDS011;10574;52.508;13.236;2024-03-02T14:27:24;5.77;;;2.23;;
20826;SDS011;10574;52.508;13.236;2024-03-02T14:29:55;8.53;;;2.67;;
20826;SDS011;10574;52.508;13.236;2024-03-02T14:32:23;7.17;;;2.77;;
20826;SDS011;10574;52.508;13.236;2024-03-02T14:34:51;4.10;;;2.07;;
20826;SDS011;10574;52.508;13.236;2024-03-02T14:37:19;6.63;;;3.43;;
20826;SDS011;10574;52.508;13.236;2024-03-02T14:39:47;5.30;;;2.90;;
20826;SDS011;10574;52.508;13.236;2024-03-02T14:42:16;7.83;;;2.37;;
20826;SDS011;10574;52.508;13.236;2024-03-02T14:44:44;4.70;;;2.00;;